Terminal Aerodrome Forecast
Issued by NWS

Home | Current Version | Previous Version | Text Only | Print | Product List | Glossary On
Versions: 1 2 3 4 5 6 7 8 9 10 11 12 13
000
FTUS42 KMLB 011100
TAFISM
TAF
KISM 011132Z 0112/0212 VRB03KT P6SM SCT250
     FM011500 19005KT P6SM SCT030 SCT250
     FM012000 21005KT P6SM VCTS BKN040CB
     FM020000 13006KT P6SM SCT040 BKN100 OVC120=

USA.gov is the U.S. government's official web portal to all federal, state and local government web resources and services.